createdAt,value
2023-05-21T00:02:13.207Z,97.32
2023-05-21T00:04:42.258Z,97.81
2023-05-21T00:07:10.976Z,96.43
2023-05-21T00:09:39.791Z,97.71
2023-05-21T00:12:09.999Z,96.56
2023-05-21T00:14:38.491Z,96.35
2023-05-21T00:17:07.602Z,95.66
2023-05-21T00:19:36.079Z,92.08
2023-05-21T00:22:05.414Z,92.69
2023-05-21T00:24:33.827Z,92.14
2023-05-21T00:27:02.235Z,91.58
2023-05-21T00:29:31.085Z,90.90
2023-05-21T00:31:59.497Z,91.18
2023-05-21T00:34:28.281Z,89.08
2023-05-21T00:36:58.201Z,86.90
2023-05-21T00:39:26.689Z,87.44
2023-05-21T00:41:55.109Z,85.57
2023-05-21T00:44:24.668Z,85.45
2023-05-21T00:46:54.660Z,85.06
2023-05-21T00:49:25.389Z,84.06
2023-05-21T00:51:53.986Z,84.47
2023-05-21T00:54:23.150Z,84.55
2023-05-21T00:56:52.563Z,85.46
2023-05-21T00:59:21.492Z,82.98
2023-05-21T01:01:56.978Z,82.49
2023-05-21T01:04:25.665Z,82.29
2023-05-21T01:06:54.536Z,82.57
2023-05-21T01:09:23.325Z,81.63
2023-05-21T01:11:53.102Z,81.15
2023-05-21T01:14:23.836Z,79.00
2023-05-21T01:16:53.355Z,79.73
2023-05-21T01:19:24.581Z,78.90
2023-05-21T01:22:03.568Z,76.23
2023-05-21T01:24:32.601Z,75.98
2023-05-21T01:27:04.092Z,76.75
2023-05-21T01:29:32.606Z,76.64
2023-05-21T01:32:15.982Z,75.73
2023-05-21T01:34:52.706Z,75.72
2023-05-21T01:37:51.860Z,76.18
2023-05-21T01:40:39.236Z,74.75
2023-05-21T01:43:08.976Z,76.19
2023-05-21T01:45:42.968Z,75.65
2023-05-21T01:48:13.491Z,74.94
2023-05-21T01:50:46.619Z,73.92
2023-05-21T01:53:17.194Z,73.78
2023-05-21T01:55:46.862Z,74.01
2023-05-21T01:58:16.683Z,73.12
2023-05-21T02:00:46.422Z,72.27
2023-05-21T02:03:18.463Z,72.88
2023-05-21T02:05:48.619Z,73.03
2023-05-21T02:08:17.132Z,73.05
2023-05-21T02:10:45.576Z,71.55
2023-05-21T02:13:14.030Z,74.47
2023-05-21T02:15:43.312Z,73.06
2023-05-21T02:18:12.274Z,73.50
2023-05-21T02:20:40.729Z,72.93
2023-05-21T02:23:09.704Z,72.23
2023-05-21T02:25:38.502Z,70.57
2023-05-21T02:28:07.758Z,71.24
2023-05-21T02:30:36.304Z,73.62
2023-05-21T02:33:04.832Z,72.07
2023-05-21T02:35:33.658Z,72.76
2023-05-21T02:38:03.937Z,69.68
2023-05-21T02:40:34.035Z,70.23
2023-05-21T02:43:02.433Z,69.36
2023-05-21T02:45:31.868Z,68.75
2023-05-21T02:48:00.303Z,70.83
2023-05-21T02:50:28.868Z,70.35
2023-05-21T02:52:57.254Z,69.24
2023-05-21T02:55:25.627Z,69.98
2023-05-21T02:57:53.985Z,67.28
2023-05-21T03:00:22.442Z,67.00
2023-05-21T03:02:50.876Z,66.82
2023-05-21T03:05:19.390Z,64.53
2023-05-21T03:07:48.148Z,67.11
2023-05-21T03:10:16.925Z,64.72
2023-05-21T03:12:45.359Z,65.27
2023-05-21T03:15:15.703Z,66.21
2023-05-21T03:17:45.376Z,63.97
2023-05-21T03:20:19.620Z,65.49
2023-05-21T03:22:49.164Z,63.57
2023-05-21T03:25:17.558Z,63.79
2023-05-21T03:27:45.993Z,64.73
2023-05-21T03:30:14.616Z,66.31
2023-05-21T03:32:45.923Z,62.19
2023-05-21T03:35:14.987Z,67.04
2023-05-21T03:37:43.440Z,65.02
2023-05-21T03:40:12.227Z,61.17
2023-05-21T03:42:40.601Z,64.82
2023-05-21T03:45:10.305Z,59.38
2023-05-21T03:47:38.762Z,57.25
2023-05-21T03:50:07.835Z,60.06
2023-05-21T03:52:36.347Z,57.38
2023-05-21T03:55:04.951Z,60.82
2023-05-21T03:57:33.753Z,61.78
2023-05-21T04:00:02.212Z,64.33
2023-05-21T04:02:30.764Z,64.32
2023-05-21T04:04:59.301Z,59.36
2023-05-21T04:07:28.059Z,54.01
2023-05-21T04:09:56.497Z,54.58
2023-05-21T04:12:24.932Z,58.78
2023-05-21T04:14:53.353Z,57.91
2023-05-21T04:17:21.953Z,58.72
2023-05-21T04:19:50.418Z,54.06
2023-05-21T04:22:18.798Z,55.20
2023-05-21T04:24:47.487Z,56.29
2023-05-21T04:27:17.564Z,58.55
2023-05-21T04:29:46.012Z,56.90
2023-05-21T04:32:16.084Z,57.71
2023-05-21T04:34:44.885Z,58.83
2023-05-21T04:37:13.431Z,59.71
2023-05-21T04:39:42.045Z,59.76
2023-05-21T04:42:11.800Z,58.76
2023-05-21T04:44:41.325Z,56.67
2023-05-21T04:47:09.896Z,57.36
2023-05-21T04:49:38.396Z,57.91
2023-05-21T04:52:06.923Z,54.60
2023-05-21T04:54:37.463Z,53.98
2023-05-21T04:57:06.757Z,54.10
2023-05-21T04:59:35.754Z,56.54
2023-05-21T05:02:04.500Z,54.63
2023-05-21T05:04:33.354Z,54.40
2023-05-21T05:07:01.984Z,54.67
2023-05-21T05:09:31.314Z,54.18
2023-05-21T05:11:59.783Z,55.33
2023-05-21T05:14:28.213Z,55.63
2023-05-21T05:17:00.827Z,53.79
2023-05-21T05:19:29.636Z,55.36
2023-05-21T05:21:58.196Z,54.39
2023-05-21T05:24:26.591Z,55.02
2023-05-21T05:26:54.973Z,51.88
2023-05-21T05:29:23.423Z,53.33
2023-05-21T05:31:51.847Z,49.28
2023-05-21T05:34:20.914Z,50.58
2023-05-21T05:36:49.277Z,51.96
2023-05-21T05:39:17.691Z,53.56
2023-05-21T05:41:46.055Z,52.11
2023-05-21T05:44:14.874Z,51.86
2023-05-21T05:46:43.436Z,49.41
2023-05-21T05:49:11.938Z,50.96
2023-05-21T05:51:40.365Z,52.20
2023-05-21T05:54:10.215Z,51.21
2023-05-21T05:56:38.587Z,47.56
2023-05-21T05:59:07.069Z,49.99
2023-05-21T06:01:35.520Z,48.32
2023-05-21T06:04:03.913Z,48.03
2023-05-21T06:06:32.614Z,52.74
2023-05-21T06:09:01.659Z,53.77
2023-05-21T06:11:30.672Z,50.48
2023-05-21T06:14:01.828Z,51.21
2023-05-21T06:16:32.461Z,52.99
2023-05-21T06:19:01.234Z,53.64
2023-05-21T06:21:29.742Z,51.06
2023-05-21T06:23:58.146Z,49.58
2023-05-21T06:26:27.289Z,45.81
2023-05-21T06:28:55.669Z,46.25
2023-05-21T06:31:24.103Z,51.78
2023-05-21T06:33:52.642Z,47.47
2023-05-21T06:36:21.367Z,50.05
2023-05-21T06:38:50.057Z,48.52
2023-05-21T06:41:18.494Z,52.62
2023-05-21T06:43:47.133Z,51.46
2023-05-21T06:46:15.790Z,52.36
2023-05-21T06:48:45.782Z,52.93
2023-05-21T06:51:14.387Z,52.06
2023-05-21T06:53:43.040Z,54.14
2023-05-21T06:56:11.463Z,53.25
2023-05-21T06:58:39.852Z,52.73
2023-05-21T07:01:08.490Z,53.11
2023-05-21T07:03:37.955Z,54.68
2023-05-21T07:06:06.455Z,54.05
2023-05-21T07:08:35.048Z,52.13
2023-05-21T07:11:03.489Z,52.64
2023-05-21T07:13:32.210Z,54.14
2023-05-21T07:16:00.626Z,55.28
2023-05-21T07:18:29.191Z,56.21
2023-05-21T07:20:58.112Z,55.15
2023-05-21T07:23:26.726Z,55.75
2023-05-21T07:25:55.405Z,54.22
2023-05-21T07:28:23.876Z,55.80
2023-05-21T07:30:52.278Z,55.08
2023-05-21T07:33:21.630Z,56.90
2023-05-21T07:35:50.358Z,57.22
2023-05-21T07:38:18.702Z,54.43
2023-05-21T07:40:48.289Z,56.22
2023-05-21T07:43:16.816Z,56.79
2023-05-21T07:45:45.217Z,58.13
2023-05-21T07:48:13.657Z,57.54
2023-05-21T07:50:42.568Z,59.53
2023-05-21T07:53:11.002Z,56.21
2023-05-21T07:55:39.424Z,57.13
2023-05-21T07:58:08.421Z,57.58
2023-05-21T08:00:48.208Z,58.60
2023-05-21T08:03:17.478Z,58.27
2023-05-21T08:05:49.614Z,58.56
2023-05-21T08:08:18.862Z,59.19
2023-05-21T08:10:48.796Z,58.08
2023-05-21T08:13:18.114Z,59.41
2023-05-21T08:15:46.678Z,61.40
2023-05-21T08:18:15.103Z,61.23
2023-05-21T08:20:43.562Z,61.38
2023-05-21T08:23:12.025Z,59.42
2023-05-21T08:25:40.442Z,62.78
2023-05-21T08:28:08.967Z,60.07
2023-05-21T08:30:37.583Z,60.00
2023-05-21T08:33:06.066Z,59.19
2023-05-21T08:35:34.723Z,60.96
2023-05-21T08:38:03.312Z,58.79
2023-05-21T08:40:32.068Z,60.52
2023-05-21T08:43:03.512Z,59.27
2023-05-21T08:45:39.507Z,59.55
2023-05-21T08:48:10.189Z,58.80
2023-05-21T08:50:39.130Z,57.65
2023-05-21T08:53:16.009Z,58.33
2023-05-21T08:55:55.055Z,58.22
2023-05-21T08:58:23.837Z,59.09
2023-05-21T09:00:52.490Z,59.63
2023-05-21T09:03:23.289Z,58.73
2023-05-21T09:05:52.709Z,59.06
2023-05-21T09:08:28.699Z,59.05
2023-05-21T09:10:57.222Z,59.23
2023-05-21T09:13:28.493Z,58.02
2023-05-21T09:15:57.124Z,59.83
2023-05-21T09:18:25.540Z,60.08
2023-05-21T09:20:54.971Z,58.53
2023-05-21T09:23:23.408Z,58.00
2023-05-21T09:25:54.067Z,58.08
2023-05-21T09:28:22.623Z,57.68
2023-05-21T09:30:55.139Z,59.16
2023-05-21T09:33:28.613Z,58.17
2023-05-21T09:35:57.528Z,59.64
2023-05-21T09:38:30.446Z,57.46
2023-05-21T09:40:59.057Z,56.78
2023-05-21T09:43:27.776Z,57.06
2023-05-21T09:46:01.839Z,56.69
2023-05-21T09:48:38.055Z,55.99
2023-05-21T09:51:13.388Z,57.20
2023-05-21T09:53:50.453Z,57.83
2023-05-21T09:56:27.451Z,57.94
2023-05-21T09:58:57.796Z,57.52
2023-05-21T10:01:26.529Z,57.75
2023-05-21T10:03:59.842Z,56.81
2023-05-21T10:06:29.980Z,56.23
2023-05-21T10:09:03.896Z,59.02
2023-05-21T10:11:35.066Z,57.19
2023-05-21T10:14:11.088Z,55.81
2023-05-21T10:16:39.606Z,56.11
2023-05-21T10:19:11.763Z,55.12
2023-05-21T10:21:41.087Z,56.08
2023-05-21T10:24:11.152Z,56.39
2023-05-21T10:26:40.761Z,56.66
2023-05-21T10:29:10.282Z,56.61
2023-05-21T10:31:41.742Z,56.52
2023-05-21T10:34:12.740Z,56.77
2023-05-21T10:36:42.435Z,57.53
2023-05-21T10:39:13.974Z,57.18
2023-05-21T10:42:02.490Z,58.14
2023-05-21T10:44:36.929Z,57.12
2023-05-21T10:47:27.766Z,57.54
2023-05-21T10:50:07.542Z,57.03
2023-05-21T10:53:03.694Z,57.70
2023-05-21T10:55:50.139Z,57.06
2023-05-21T10:58:44.460Z,56.46
2023-05-21T11:01:15.420Z,56.17
2023-05-21T11:03:44.380Z,57.37
2023-05-21T11:06:13.159Z,57.66
2023-05-21T11:08:49.231Z,56.74
2023-05-21T11:11:47.024Z,57.65
2023-05-21T11:14:33.510Z,57.77
2023-05-21T11:17:04.081Z,56.95
2023-05-21T11:19:38.307Z,56.90
2023-05-21T11:22:27.824Z,57.19
2023-05-21T11:24:57.578Z,56.60
2023-05-21T11:27:35.180Z,56.97
2023-05-21T11:30:23.703Z,57.01
2023-05-21T11:33:14.623Z,57.69
2023-05-21T11:36:04.389Z,58.18
2023-05-21T11:38:33.941Z,58.04
2023-05-21T11:41:05.702Z,57.26
2023-05-21T11:43:34.152Z,58.26
2023-05-21T11:46:03.636Z,58.43
2023-05-21T11:48:33.201Z,58.04
2023-05-21T11:51:03.152Z,58.09
2023-05-21T11:53:32.054Z,59.42
2023-05-21T11:56:03.307Z,58.96
2023-05-21T11:58:32.845Z,57.38
2023-05-21T12:01:01.211Z,57.44
2023-05-21T12:03:31.306Z,58.32
2023-05-21T12:06:07.534Z,58.61
2023-05-21T12:08:36.814Z,58.52
2023-05-21T12:11:05.721Z,59.39
2023-05-21T12:13:34.154Z,59.95
2023-05-21T12:16:06.560Z,60.11
2023-05-21T12:18:35.352Z,61.92
2023-05-21T12:21:03.843Z,62.23
2023-05-21T12:23:32.535Z,61.63
2023-05-21T12:26:01.206Z,61.29
2023-05-21T12:28:29.966Z,61.23
2023-05-21T12:30:58.336Z,62.77
2023-05-21T12:33:27.122Z,63.68
2023-05-21T12:35:55.638Z,65.45
2023-05-21T12:38:24.083Z,65.93
2023-05-21T12:40:52.503Z,66.28
2023-05-21T12:43:21.382Z,66.56
2023-05-21T12:45:49.881Z,66.61
2023-05-21T12:48:18.316Z,64.74
2023-05-21T12:50:46.831Z,70.21
2023-05-21T12:53:15.459Z,68.46
2023-05-21T12:55:43.872Z,69.49
2023-05-21T12:58:15.393Z,69.23
2023-05-21T13:00:45.059Z,68.75
2023-05-21T13:03:13.732Z,71.54
2023-05-21T13:05:43.003Z,74.49
2023-05-21T13:08:12.265Z,75.97
2023-05-21T13:10:40.688Z,76.44
2023-05-21T13:13:09.150Z,77.17
2023-05-21T13:15:37.675Z,77.19
2023-05-21T13:18:06.899Z,74.27
2023-05-21T13:20:35.461Z,72.29
2023-05-21T13:23:07.193Z,73.02
2023-05-21T13:25:36.809Z,71.41
2023-05-21T13:28:06.516Z,74.05
2023-05-21T13:30:35.137Z,72.97
2023-05-21T13:33:04.352Z,72.59
2023-05-21T13:35:33.295Z,70.03
2023-05-21T13:38:01.710Z,66.05
2023-05-21T13:40:30.176Z,65.69
2023-05-21T13:42:58.831Z,66.03
2023-05-21T13:45:29.952Z,65.69
2023-05-21T13:47:58.476Z,65.14
2023-05-21T13:50:27.050Z,65.39
2023-05-21T13:52:55.521Z,64.52
2023-05-21T13:55:24.375Z,65.89
2023-05-21T13:57:52.887Z,63.90
2023-05-21T14:00:21.339Z,61.28
2023-05-21T14:02:51.070Z,61.20
2023-05-21T14:05:19.679Z,63.02
2023-05-21T14:07:49.257Z,61.42
2023-05-21T14:10:17.989Z,61.13
2023-05-21T14:12:47.504Z,61.18
2023-05-21T14:15:16.059Z,61.35
2023-05-21T14:17:44.695Z,61.03
2023-05-21T14:20:13.682Z,60.30
2023-05-21T14:22:42.126Z,60.82
2023-05-21T14:25:11.225Z,60.15
2023-05-21T14:27:39.756Z,61.37
2023-05-21T14:30:09.107Z,62.41
2023-05-21T14:32:37.735Z,63.06
2023-05-21T14:35:06.955Z,63.37
2023-05-21T14:37:35.468Z,63.93
2023-05-21T14:40:06.448Z,63.62
2023-05-21T14:42:37.584Z,63.83
2023-05-21T14:45:18.264Z,64.67
2023-05-21T14:47:48.746Z,66.46
2023-05-21T14:50:18.374Z,66.12
2023-05-21T14:52:47.154Z,66.35
2023-05-21T14:55:17.491Z,65.26
2023-05-21T14:57:46.249Z,65.55
2023-05-21T15:00:15.132Z,65.78
2023-05-21T15:02:43.662Z,67.19
2023-05-21T15:05:12.249Z,67.17
2023-05-21T15:07:40.783Z,67.48
2023-05-21T15:10:10.313Z,65.80
2023-05-21T15:12:42.518Z,67.25
2023-05-21T15:15:13.137Z,66.37
2023-05-21T15:17:41.990Z,65.43
2023-05-21T15:20:11.369Z,65.69
2023-05-21T15:22:40.496Z,65.33
2023-05-21T15:25:09.310Z,65.44
2023-05-21T15:27:37.801Z,65.24
2023-05-21T15:30:07.919Z,66.18
2023-05-21T15:32:36.443Z,66.26
2023-05-21T15:35:05.066Z,64.95
2023-05-21T15:37:34.073Z,65.18
2023-05-21T15:40:03.404Z,65.22
2023-05-21T15:42:32.610Z,64.69
2023-05-21T15:45:01.141Z,65.58
2023-05-21T15:47:29.650Z,63.57
2023-05-21T15:49:59.650Z,65.24
2023-05-21T15:52:28.151Z,67.06
2023-05-21T15:54:56.642Z,67.02
2023-05-21T15:57:25.057Z,67.08
2023-05-21T15:59:53.558Z,67.83
2023-05-21T16:02:22.026Z,66.92
2023-05-21T16:04:52.652Z,67.25
2023-05-21T16:07:21.108Z,66.96
2023-05-21T16:09:49.610Z,66.94
2023-05-21T16:12:18.523Z,67.37
2023-05-21T16:14:50.965Z,65.85
2023-05-21T16:17:23.111Z,66.52
2023-05-21T16:19:51.663Z,66.59
2023-05-21T16:22:21.664Z,69.23
2023-05-21T16:24:50.156Z,69.11
2023-05-21T16:27:18.734Z,68.84
2023-05-21T16:29:47.372Z,68.40
2023-05-21T16:32:16.132Z,67.86
2023-05-21T16:34:45.689Z,68.80
2023-05-21T16:37:14.231Z,67.55
2023-05-21T16:39:42.648Z,67.29
2023-05-21T16:42:11.065Z,66.94
2023-05-21T16:44:40.208Z,68.10
2023-05-21T16:47:08.628Z,69.86
2023-05-21T16:49:37.120Z,68.12
2023-05-21T16:52:06.256Z,68.37
2023-05-21T16:54:35.323Z,67.17
2023-05-21T16:57:03.775Z,68.76
2023-05-21T16:59:32.217Z,71.24
2023-05-21T17:02:00.884Z,71.01
2023-05-21T17:04:30.017Z,71.13
2023-05-21T17:06:58.554Z,70.40
2023-05-21T17:09:27.187Z,70.36
2023-05-21T17:11:55.620Z,70.71
2023-05-21T17:14:33.827Z,72.24
2023-05-21T17:17:03.443Z,73.04
2023-05-21T17:19:32.345Z,73.86
2023-05-21T17:22:00.894Z,73.16
2023-05-21T17:24:29.421Z,71.64
2023-05-21T17:26:57.936Z,72.10
2023-05-21T17:29:26.869Z,74.31
2023-05-21T17:31:55.659Z,74.40
2023-05-21T17:34:27.216Z,74.39
2023-05-21T17:36:56.261Z,74.99
2023-05-21T17:39:24.847Z,75.31
2023-05-21T17:41:53.716Z,75.43
2023-05-21T17:44:22.600Z,76.23
2023-05-21T17:46:52.151Z,74.17
2023-05-21T17:49:20.744Z,73.56
2023-05-21T17:51:49.417Z,76.74
2023-05-21T17:54:17.923Z,77.06
2023-05-21T17:56:46.697Z,77.44
2023-05-21T17:59:15.927Z,76.81
2023-05-21T18:01:44.450Z,77.38
2023-05-21T18:04:14.042Z,76.25
2023-05-21T18:06:42.586Z,77.28
2023-05-21T18:09:16.128Z,76.81
2023-05-21T18:11:47.765Z,75.29
2023-05-21T18:14:16.549Z,77.29
2023-05-21T18:16:45.156Z,75.48
2023-05-21T18:19:14.083Z,75.91
2023-05-21T18:21:42.615Z,76.45
2023-05-21T18:24:11.119Z,77.79
2023-05-21T18:26:39.552Z,80.52
2023-05-21T18:29:08.106Z,78.43
2023-05-21T18:31:36.572Z,78.58
2023-05-21T18:34:05.062Z,79.28
2023-05-21T18:36:40.353Z,81.30
2023-05-21T18:39:10.660Z,80.50
2023-05-21T18:41:40.707Z,78.01
2023-05-21T18:44:09.258Z,77.83
2023-05-21T18:46:38.464Z,80.55
2023-05-21T18:49:06.904Z,79.23
2023-05-21T18:51:35.348Z,78.06
2023-05-21T18:54:03.868Z,80.58
2023-05-21T18:56:32.415Z,80.70
2023-05-21T18:59:00.896Z,80.21
2023-05-21T19:01:29.645Z,78.67
2023-05-21T19:03:58.355Z,79.63
2023-05-21T19:06:28.622Z,79.89
2023-05-21T19:08:57.080Z,78.12
2023-05-21T19:11:28.441Z,76.85
2023-05-21T19:13:56.850Z,76.49
2023-05-21T19:16:25.294Z,76.16
2023-05-21T19:18:53.718Z,76.68
2023-05-21T19:21:22.243Z,78.37
2023-05-21T19:23:53.187Z,76.99
2023-05-21T19:26:23.667Z,76.56
2023-05-21T19:28:54.233Z,79.45
2023-05-21T19:31:24.000Z,79.89
2023-05-21T19:33:52.802Z,76.79
2023-05-21T19:36:22.307Z,79.18
2023-05-21T19:38:52.173Z,81.23
2023-05-21T19:41:22.941Z,81.61
2023-05-21T19:43:52.432Z,82.64
2023-05-21T19:46:21.278Z,82.30
2023-05-21T19:48:50.496Z,80.77
2023-05-21T19:51:19.322Z,80.85
2023-05-21T19:53:47.726Z,82.51
2023-05-21T19:56:17.052Z,82.50
2023-05-21T19:58:48.912Z,83.66
2023-05-21T20:01:18.264Z,84.47
2023-05-21T20:03:46.987Z,83.44
2023-05-21T20:06:17.841Z,84.51
2023-05-21T20:08:46.254Z,84.66
2023-05-21T20:11:14.683Z,84.20
2023-05-21T20:13:43.368Z,83.79
2023-05-21T20:16:14.161Z,82.89
2023-05-21T20:18:42.622Z,84.22
2023-05-21T20:21:11.442Z,86.03
2023-05-21T20:23:40.138Z,85.55
2023-05-21T20:26:08.727Z,85.13
2023-05-21T20:28:38.249Z,83.69
2023-05-21T20:31:06.943Z,85.98
2023-05-21T20:33:40.041Z,87.56
2023-05-21T20:36:08.999Z,85.78
2023-05-21T20:38:38.956Z,85.85
2023-05-21T20:41:07.523Z,84.53
2023-05-21T20:43:38.331Z,86.13
2023-05-21T20:46:06.935Z,85.66
2023-05-21T20:48:36.193Z,85.27
2023-05-21T20:51:05.423Z,83.16
2023-05-21T20:53:34.690Z,81.57
2023-05-21T20:56:03.093Z,82.20
2023-05-21T20:58:32.388Z,80.81
2023-05-21T21:01:02.736Z,81.71
2023-05-21T21:03:34.655Z,84.86
2023-05-21T21:06:04.042Z,84.23
2023-05-21T21:08:32.476Z,83.48
2023-05-21T21:11:00.896Z,80.88
2023-05-21T21:13:29.284Z,81.10
2023-05-21T21:15:57.685Z,82.70
2023-05-21T21:18:26.101Z,84.36
2023-05-21T21:20:54.971Z,85.42
2023-05-21T21:23:25.982Z,85.49
2023-05-21T21:25:54.383Z,85.40
2023-05-21T21:28:22.750Z,84.45
2023-05-21T21:30:51.293Z,83.76
2023-05-21T21:33:19.684Z,85.99
2023-05-21T21:35:48.120Z,85.96
2023-05-21T21:38:16.813Z,85.84
2023-05-21T21:40:45.476Z,87.01
2023-05-21T21:43:13.829Z,87.90
2023-05-21T21:45:42.299Z,87.33
2023-05-21T21:48:10.836Z,87.35
2023-05-21T21:50:39.407Z,88.05
2023-05-21T21:53:07.891Z,86.92
2023-05-21T21:55:36.307Z,87.07
2023-05-21T21:58:04.730Z,87.41
2023-05-21T22:00:33.120Z,84.47
2023-05-21T22:03:01.586Z,84.05
2023-05-21T22:05:31.745Z,86.26
2023-05-21T22:08:00.138Z,88.87
2023-05-21T22:10:28.554Z,88.96
2023-05-21T22:12:57.267Z,89.89
2023-05-21T22:15:28.298Z,90.00
2023-05-21T22:17:56.921Z,89.88
2023-05-21T22:20:30.208Z,89.41
2023-05-21T22:22:58.937Z,90.46
2023-05-21T22:25:27.381Z,90.48
2023-05-21T22:27:55.865Z,87.42
2023-05-21T22:30:24.320Z,90.99
2023-05-21T22:32:52.767Z,90.91
2023-05-21T22:35:21.285Z,89.87
2023-05-21T22:37:49.990Z,90.17
2023-05-21T22:40:18.773Z,90.09
2023-05-21T22:42:48.158Z,89.86
2023-05-21T22:45:17.010Z,91.17
2023-05-21T22:47:45.441Z,91.06
2023-05-21T22:50:13.971Z,90.80
2023-05-21T22:52:42.869Z,90.89
2023-05-21T22:55:12.519Z,90.14
2023-05-21T22:57:41.195Z,90.88
2023-05-21T23:00:11.617Z,91.33
2023-05-21T23:02:40.164Z,91.54
2023-05-21T23:05:08.978Z,90.22
2023-05-21T23:07:37.438Z,90.20
2023-05-21T23:10:06.306Z,88.35
2023-05-21T23:12:34.809Z,88.73
2023-05-21T23:15:06.330Z,88.84
2023-05-21T23:17:35.364Z,88.93
2023-05-21T23:20:03.935Z,87.64
2023-05-21T23:22:32.607Z,87.26
2023-05-21T23:25:01.050Z,86.55
2023-05-21T23:27:30.105Z,88.67
2023-05-21T23:29:58.461Z,91.63
2023-05-21T23:32:27.206Z,91.08
2023-05-21T23:34:55.603Z,91.25
2023-05-21T23:37:24.377Z,90.27
2023-05-21T23:39:52.913Z,88.79
2023-05-21T23:42:21.454Z,87.00
2023-05-21T23:44:49.932Z,87.36
2023-05-21T23:47:18.308Z,91.06
2023-05-21T23:49:46.803Z,90.11
2023-05-21T23:52:18.123Z,88.37
2023-05-21T23:54:46.956Z,91.72
2023-05-21T23:57:15.459Z,92.88
2023-05-21T23:59:43.916Z,92.29
